createdAt,value
2022-12-05T00:00:31.013Z,5.00
2022-12-05T00:03:12.112Z,4.70
2022-12-05T00:05:44.486Z,5.00
2022-12-05T00:08:17.001Z,4.30
2022-12-05T00:10:49.276Z,3.90
2022-12-05T00:13:21.636Z,4.40
2022-12-05T00:15:53.998Z,4.50
2022-12-05T00:18:26.265Z,4.30
2022-12-05T00:20:58.936Z,4.10
2022-12-05T00:23:31.631Z,4.50
2022-12-05T00:26:06.279Z,3.90
2022-12-05T00:28:38.692Z,4.20
2022-12-05T00:33:42.461Z,4.00
2022-12-05T00:36:16.720Z,4.70
2022-12-05T00:38:49.271Z,3.50
2022-12-05T00:41:23.002Z,4.10
2022-12-05T00:43:55.435Z,4.40
2022-12-05T00:46:30.040Z,4.10
2022-12-05T00:49:03.474Z,3.40
2022-12-05T00:51:37.021Z,3.50
2022-12-05T00:54:10.928Z,3.70
2022-12-05T00:56:43.244Z,3.80
2022-12-05T00:59:18.797Z,4.50
2022-12-05T01:01:51.762Z,5.50
2022-12-05T01:04:25.690Z,5.00
2022-12-05T01:06:59.714Z,5.60
2022-12-05T01:09:33.225Z,5.70
2022-12-05T01:12:05.799Z,6.30
2022-12-05T01:14:38.004Z,6.70
2022-12-05T01:17:11.155Z,6.80
2022-12-05T01:19:43.453Z,7.30
2022-12-05T01:22:15.767Z,7.70
2022-12-05T01:24:48.116Z,7.70
2022-12-05T01:27:20.427Z,6.70
2022-12-05T01:29:52.726Z,7.60
2022-12-05T01:32:24.956Z,8.10
2022-12-05T01:34:57.463Z,7.80
2022-12-05T01:40:00.444Z,7.40
2022-12-05T01:42:32.673Z,8.00
2022-12-05T01:45:18.160Z,8.10
2022-12-05T01:47:50.427Z,7.30
2022-12-05T01:50:23.019Z,7.40
2022-12-05T01:52:55.302Z,6.80
2022-12-05T01:55:27.708Z,7.60
2022-12-05T01:58:00.558Z,6.90
2022-12-05T02:00:33.020Z,7.40
2022-12-05T02:03:09.091Z,6.90
2022-12-05T02:05:41.497Z,6.80
2022-12-05T02:08:14.554Z,7.00
2022-12-05T02:10:49.182Z,5.70
2022-12-05T02:13:44.794Z,7.50
2022-12-05T02:16:37.472Z,6.10
2022-12-05T02:19:23.045Z,6.00
2022-12-05T02:22:28.865Z,5.70
2022-12-05T02:25:38.467Z,6.20
2022-12-05T02:28:35.279Z,5.70
2022-12-05T02:31:11.647Z,6.60
2022-12-05T02:33:47.840Z,7.00
2022-12-05T02:36:24.143Z,5.70
2022-12-05T02:39:04.769Z,6.00
2022-12-05T02:41:41.099Z,5.90
2022-12-05T02:44:17.250Z,6.70
2022-12-05T02:46:50.340Z,6.30
2022-12-05T02:49:26.396Z,6.40
2022-12-05T02:52:01.264Z,5.90
2022-12-05T02:54:37.183Z,6.10
2022-12-05T02:57:10.902Z,6.30
2022-12-05T02:59:43.158Z,6.80
2022-12-05T03:02:26.555Z,7.00
2022-12-05T03:05:16.091Z,7.70
2022-12-05T03:07:50.352Z,7.30
2022-12-05T03:10:25.215Z,5.80
2022-12-05T03:13:00.366Z,6.10
2022-12-05T03:15:34.442Z,7.20
2022-12-05T03:18:10.341Z,7.10
2022-12-05T03:20:47.442Z,7.00
2022-12-05T03:23:24.839Z,7.50
2022-12-05T03:26:05.250Z,5.90
2022-12-05T03:28:43.511Z,6.80
2022-12-05T03:31:18.197Z,6.40
2022-12-05T03:33:53.641Z,6.40
2022-12-05T03:36:34.010Z,6.90
2022-12-05T03:39:10.372Z,6.60
2022-12-05T03:41:44.790Z,5.90
2022-12-05T03:44:19.466Z,6.70
2022-12-05T03:46:54.405Z,6.10
2022-12-05T03:49:34.172Z,7.10
2022-12-05T03:52:11.152Z,6.70
2022-12-05T03:54:45.509Z,6.80
2022-12-05T03:57:21.148Z,7.40
2022-12-05T03:59:56.751Z,7.80
2022-12-05T04:02:31.995Z,7.90
2022-12-05T04:05:06.771Z,7.20
2022-12-05T04:07:40.772Z,8.00
2022-12-05T04:10:17.532Z,6.50
2022-12-05T04:12:50.189Z,8.20
2022-12-05T04:15:26.015Z,7.50
2022-12-05T04:18:01.046Z,8.70
2022-12-05T04:20:54.408Z,8.00
2022-12-05T04:23:27.361Z,6.80
2022-12-05T04:26:07.015Z,6.80
2022-12-05T04:28:43.357Z,7.20
2022-12-05T04:31:19.475Z,7.70
2022-12-05T04:33:55.434Z,8.00
2022-12-05T04:36:32.038Z,7.50
2022-12-05T04:39:10.695Z,8.10
2022-12-05T04:41:50.244Z,7.20
2022-12-05T04:44:25.244Z,7.50
2022-12-05T04:46:59.029Z,7.60
2022-12-05T04:49:32.664Z,7.40
2022-12-05T04:52:09.488Z,7.20
2022-12-05T04:54:45.488Z,7.60
2022-12-05T04:57:20.061Z,7.00
2022-12-05T04:59:53.632Z,8.10
2022-12-05T05:02:33.224Z,8.30
2022-12-05T05:05:10.967Z,8.50
2022-12-05T05:07:50.489Z,8.50
2022-12-05T05:10:27.127Z,9.10
2022-12-05T05:12:59.401Z,7.10
2022-12-05T05:15:32.238Z,6.80
2022-12-05T05:18:05.032Z,7.90
2022-12-05T05:20:37.323Z,7.70
2022-12-05T05:23:10.132Z,7.20
2022-12-05T05:25:42.537Z,7.40
2022-12-05T05:28:14.860Z,6.50
2022-12-05T05:30:47.754Z,6.70
2022-12-05T05:33:21.132Z,6.20
2022-12-05T05:35:53.402Z,6.80
2022-12-05T05:38:25.656Z,6.70
2022-12-05T05:40:57.941Z,7.00
2022-12-05T05:43:30.237Z,7.00
2022-12-05T05:46:06.771Z,7.60
2022-12-05T05:48:40.088Z,7.50
2022-12-05T05:51:14.715Z,7.90
2022-12-05T05:53:48.039Z,7.30
2022-12-05T05:56:22.757Z,6.70
2022-12-05T05:59:01.391Z,7.80
2022-12-05T06:01:34.739Z,9.00
2022-12-05T06:04:08.000Z,8.20
2022-12-05T06:06:41.426Z,7.20
2022-12-05T06:09:14.075Z,7.90
2022-12-05T06:14:17.244Z,7.20
2022-12-05T06:16:52.827Z,9.00
2022-12-05T06:19:26.601Z,9.10
2022-12-05T06:22:07.120Z,7.50
2022-12-05T06:24:43.406Z,7.30
2022-12-05T06:31:36.819Z,8.00
2022-12-05T06:34:12.120Z,8.90
2022-12-05T06:36:46.990Z,8.50
2022-12-05T06:39:19.774Z,9.20
2022-12-05T06:41:55.014Z,7.70
2022-12-05T06:44:29.224Z,9.30
2022-12-05T06:47:03.396Z,9.10
2022-12-05T06:49:38.363Z,9.90
2022-12-05T06:52:11.571Z,8.10
2022-12-05T06:54:47.772Z,8.30
2022-12-05T06:57:22.007Z,6.80
2022-12-05T07:04:43.813Z,7.70
2022-12-05T07:07:17.808Z,7.00
2022-12-05T07:09:53.956Z,7.20
2022-12-05T07:12:29.092Z,7.40
2022-12-05T07:15:02.125Z,8.20
2022-12-05T07:23:15.282Z,7.80
2022-12-05T07:25:47.573Z,7.80
2022-12-05T07:28:20.142Z,8.20
2022-12-05T07:30:59.827Z,8.10
2022-12-05T07:33:32.144Z,7.30
2022-12-05T07:36:05.717Z,9.20
2022-12-05T07:38:38.120Z,15.70
2022-12-05T07:41:13.669Z,8.10
2022-12-05T07:43:46.472Z,7.60
2022-12-05T07:46:18.930Z,7.50
2022-12-05T07:51:23.476Z,8.00
2022-12-05T07:53:55.991Z,7.90
2022-12-05T07:56:28.777Z,8.70
2022-12-05T07:59:01.262Z,8.40
2022-12-05T08:01:33.956Z,7.70
2022-12-05T08:04:10.713Z,7.60
2022-12-05T08:06:46.260Z,7.40
2022-12-05T08:09:18.614Z,8.10
2022-12-05T08:11:52.726Z,9.00
2022-12-05T08:14:25.479Z,8.00
2022-12-05T08:16:58.093Z,7.40
2022-12-05T08:19:30.559Z,7.00
2022-12-05T08:22:02.914Z,7.90
2022-12-05T08:24:35.441Z,7.90
2022-12-05T08:27:08.637Z,7.90
2022-12-05T08:29:40.903Z,8.10
2022-12-05T08:32:13.200Z,7.70
2022-12-05T08:34:45.511Z,8.00
2022-12-05T08:37:17.846Z,8.50
2022-12-05T08:39:51.135Z,9.20
2022-12-05T08:42:23.387Z,8.60
2022-12-05T08:44:55.839Z,9.70
2022-12-05T08:47:28.615Z,10.60
2022-12-05T08:52:32.171Z,9.60
2022-12-05T08:55:04.760Z,9.80
2022-12-05T08:57:37.134Z,10.00
2022-12-05T09:00:12.399Z,10.40
2022-12-05T09:02:44.748Z,9.40
2022-12-05T09:08:01.705Z,9.40
2022-12-05T09:10:34.186Z,8.90
2022-12-05T09:13:07.073Z,9.50
2022-12-05T09:15:41.186Z,9.20
2022-12-05T09:18:15.495Z,9.20
2022-12-05T09:20:47.949Z,9.60
2022-12-05T09:23:20.631Z,10.00
2022-12-05T09:25:58.313Z,9.10
2022-12-05T09:28:31.376Z,8.70
2022-12-05T09:31:05.304Z,8.10
2022-12-05T09:33:38.892Z,8.90
2022-12-05T09:36:14.776Z,10.10
2022-12-05T09:38:47.521Z,9.70
2022-12-05T09:41:46.093Z,9.40
2022-12-05T09:44:22.672Z,9.10
2022-12-05T09:46:58.237Z,8.50
2022-12-05T09:49:31.497Z,8.70
2022-12-05T09:52:04.602Z,8.90
2022-12-05T09:54:37.195Z,10.00
2022-12-05T09:59:40.608Z,9.70
2022-12-05T10:02:26.042Z,8.30
2022-12-05T10:05:03.066Z,10.20
2022-12-05T10:07:39.654Z,9.80
2022-12-05T10:10:25.703Z,9.60
2022-12-05T10:13:09.117Z,10.00
2022-12-05T10:15:45.671Z,9.90
2022-12-05T10:18:28.796Z,9.90
2022-12-05T10:21:04.188Z,10.40
2022-12-05T10:23:57.084Z,10.50
2022-12-05T10:26:34.108Z,10.10
2022-12-05T10:29:13.676Z,9.70
2022-12-05T10:31:47.103Z,10.70
2022-12-05T10:34:23.420Z,9.30
2022-12-05T10:36:58.594Z,10.30
2022-12-05T10:39:31.873Z,9.80
2022-12-05T10:42:04.328Z,9.80
2022-12-05T10:44:37.722Z,9.70
2022-12-05T10:47:10.437Z,9.90
2022-12-05T10:49:45.110Z,10.30
2022-12-05T10:52:17.949Z,10.70
2022-12-05T10:54:53.098Z,9.00
2022-12-05T10:57:27.574Z,9.40
2022-12-05T11:00:10.385Z,9.70
2022-12-05T11:02:46.015Z,9.30
2022-12-05T11:05:19.029Z,8.50
2022-12-05T11:07:51.462Z,8.00
2022-12-05T11:13:01.341Z,8.90
2022-12-05T11:15:34.353Z,8.90
2022-12-05T11:21:18.269Z,8.50
2022-12-05T11:23:51.903Z,8.50
2022-12-05T11:26:40.941Z,9.40
2022-12-05T11:29:32.376Z,9.60
2022-12-05T11:32:07.338Z,9.10
2022-12-05T11:34:43.779Z,9.30
2022-12-05T11:37:19.696Z,8.20
2022-12-05T11:39:52.016Z,9.30
2022-12-05T11:42:36.747Z,9.50
2022-12-05T11:45:35.187Z,7.60
2022-12-05T11:48:17.499Z,8.40
2022-12-05T11:51:00.426Z,8.80
2022-12-05T11:53:48.968Z,10.20
2022-12-05T11:56:31.859Z,9.60
2022-12-05T11:59:23.211Z,9.50
2022-12-05T12:02:04.015Z,9.60
2022-12-05T12:04:45.468Z,9.70
2022-12-05T12:07:26.997Z,9.70
2022-12-05T12:10:09.778Z,8.20
2022-12-05T12:12:48.593Z,8.60
2022-12-05T12:15:52.199Z,8.70
2022-12-05T12:18:48.393Z,7.60
2022-12-05T12:21:23.152Z,7.50
2022-12-05T12:24:04.205Z,9.20
2022-12-05T12:26:44.243Z,8.80
2022-12-05T12:29:26.640Z,8.30
2022-12-05T12:32:12.880Z,7.40
2022-12-05T12:35:06.703Z,8.00
2022-12-05T12:37:48.393Z,8.30
2022-12-05T12:40:25.942Z,7.50
2022-12-05T12:43:07.961Z,8.20
2022-12-05T12:45:49.421Z,9.00
2022-12-05T12:48:42.378Z,7.70
2022-12-05T12:51:16.281Z,8.10
2022-12-05T12:54:06.663Z,8.10
2022-12-05T12:56:48.166Z,8.90
2022-12-05T12:59:41.977Z,9.10
2022-12-05T13:02:19.783Z,8.50
2022-12-05T13:04:56.404Z,8.20
2022-12-05T13:07:33.829Z,7.90
2022-12-05T13:10:13.507Z,8.00
2022-12-05T13:12:47.265Z,6.80
2022-12-05T13:15:23.374Z,7.60
2022-12-05T13:17:57.680Z,7.70
2022-12-05T13:20:34.488Z,6.60
2022-12-05T13:23:08.546Z,7.80
2022-12-05T13:25:42.783Z,7.50
2022-12-05T13:28:27.174Z,6.80
2022-12-05T13:31:01.948Z,7.50
2022-12-05T13:33:37.220Z,7.20
2022-12-05T13:36:32.215Z,9.00
2022-12-05T13:39:23.715Z,7.70
2022-12-05T13:42:17.281Z,6.90
2022-12-05T13:44:52.036Z,7.20
2022-12-05T13:47:32.298Z,7.00
2022-12-05T13:54:20.082Z,7.60
2022-12-05T13:56:59.219Z,7.90
2022-12-05T14:00:05.175Z,8.20
2022-12-05T14:11:19.123Z,7.00
2022-12-05T14:13:52.083Z,7.50
2022-12-05T14:16:51.181Z,7.70
2022-12-05T14:19:46.875Z,7.40
2022-12-05T14:22:40.788Z,7.60
2022-12-05T14:25:26.219Z,7.80
2022-12-05T14:28:06.491Z,7.70
2022-12-05T14:30:52.123Z,7.40
2022-12-05T14:33:27.515Z,7.80
2022-12-05T14:36:15.329Z,7.00
2022-12-05T14:38:51.257Z,7.80
2022-12-05T14:41:37.087Z,6.30
2022-12-05T14:44:22.950Z,6.10
2022-12-05T14:47:04.034Z,6.00
2022-12-05T14:49:58.027Z,5.90
2022-12-05T14:52:38.597Z,6.20
2022-12-05T14:55:19.616Z,6.30
2022-12-05T14:58:10.945Z,6.10
2022-12-05T15:00:51.035Z,5.50
2022-12-05T15:03:38.488Z,6.30
2022-12-05T15:06:19.450Z,7.10
2022-12-05T15:09:43.927Z,6.30
2022-12-05T15:12:27.033Z,7.60
2022-12-05T15:15:08.392Z,7.20
2022-12-05T15:17:59.812Z,6.50
2022-12-05T15:20:45.767Z,6.80
2022-12-05T15:24:01.496Z,7.10
2022-12-05T15:26:46.809Z,7.70
2022-12-05T15:29:28.091Z,6.30
2022-12-05T15:32:05.222Z,7.60
2022-12-05T15:34:45.025Z,7.60
2022-12-05T15:37:22.252Z,8.20
2022-12-05T15:40:06.523Z,8.50
2022-12-05T15:42:42.846Z,7.50
2022-12-05T15:45:46.022Z,7.10
2022-12-05T15:48:35.659Z,7.30
2022-12-05T15:51:16.614Z,7.50
2022-12-05T15:53:59.553Z,6.50
2022-12-05T15:56:40.087Z,7.20
2022-12-05T15:59:18.755Z,7.40
2022-12-05T16:01:56.629Z,6.70
2022-12-05T16:04:54.836Z,7.00
2022-12-05T16:07:45.943Z,6.90
2022-12-05T16:10:37.293Z,7.20
2022-12-05T16:13:36.697Z,8.20
2022-12-05T16:16:19.682Z,6.70
2022-12-05T16:19:02.459Z,6.40
2022-12-05T16:21:43.003Z,7.30
2022-12-05T16:24:29.952Z,7.30
2022-12-05T16:27:16.852Z,7.70
2022-12-05T16:29:52.717Z,7.40
2022-12-05T16:32:38.016Z,8.10
2022-12-05T16:35:49.291Z,9.40
2022-12-05T16:38:25.848Z,7.80
2022-12-05T16:41:02.698Z,7.20
2022-12-05T16:43:48.431Z,8.00
2022-12-05T16:46:53.711Z,6.30
2022-12-05T16:49:44.342Z,7.00
2022-12-05T16:52:24.533Z,7.20
2022-12-05T16:55:07.924Z,6.80
2022-12-05T16:57:47.924Z,6.70
2022-12-05T17:00:52.305Z,7.90
2022-12-05T17:03:34.402Z,6.30
2022-12-05T17:06:12.803Z,8.00
2022-12-05T17:08:46.623Z,7.10
2022-12-05T17:11:22.100Z,6.90
2022-12-05T17:13:55.245Z,6.40
2022-12-05T17:16:29.385Z,6.00
2022-12-05T17:19:06.600Z,6.90
2022-12-05T17:21:39.420Z,6.80
2022-12-05T17:24:17.396Z,7.40
2022-12-05T17:26:50.026Z,7.30
2022-12-05T17:29:22.349Z,6.90
2022-12-05T17:31:54.707Z,7.40
2022-12-05T17:34:27.129Z,7.00
2022-12-05T17:37:01.728Z,6.40
2022-12-05T17:39:36.258Z,7.10
2022-12-05T17:42:09.480Z,7.50
2022-12-05T17:44:42.958Z,7.70
2022-12-05T17:47:15.393Z,7.70
2022-12-05T17:49:47.941Z,6.50
2022-12-05T17:52:21.908Z,7.20
2022-12-05T17:54:54.893Z,7.20
2022-12-05T17:57:27.702Z,7.50
2022-12-05T18:00:04.333Z,6.80
2022-12-05T18:02:37.030Z,7.10
2022-12-05T18:05:10.971Z,7.00
2022-12-05T18:07:45.335Z,7.10
2022-12-05T18:10:21.106Z,7.90
2022-12-05T18:12:54.726Z,7.60
2022-12-05T18:15:27.070Z,8.00
2022-12-05T18:18:03.168Z,7.60
2022-12-05T18:20:36.940Z,8.60
2022-12-05T18:23:09.251Z,8.90
2022-12-05T18:25:41.712Z,8.00
2022-12-05T18:28:17.863Z,7.30
2022-12-05T18:30:51.914Z,6.90
2022-12-05T18:33:24.480Z,7.50
2022-12-05T18:35:56.754Z,7.80
2022-12-05T18:38:29.078Z,7.30
2022-12-05T18:41:03.980Z,5.60
2022-12-05T18:43:37.503Z,6.50
2022-12-05T18:46:09.981Z,6.40
2022-12-05T18:51:21.984Z,6.80
2022-12-05T18:53:56.893Z,7.40
2022-12-05T18:56:31.276Z,6.80
2022-12-05T18:59:05.033Z,6.30
2022-12-05T19:01:39.788Z,6.70
2022-12-05T19:04:13.653Z,7.40
2022-12-05T19:06:49.889Z,7.10
2022-12-05T19:09:23.684Z,7.40
2022-12-05T19:11:58.801Z,6.80
2022-12-05T19:14:33.312Z,5.90
2022-12-05T19:17:05.697Z,5.70
2022-12-05T19:19:38.064Z,6.40
2022-12-05T19:22:10.379Z,6.90
2022-12-05T19:24:42.748Z,6.70
2022-12-05T19:27:15.499Z,7.70
2022-12-05T19:29:47.808Z,6.80
2022-12-05T19:32:20.080Z,6.10
2022-12-05T19:34:52.427Z,5.80
2022-12-05T19:37:24.689Z,6.70
2022-12-05T19:39:57.138Z,6.90
2022-12-05T19:42:31.186Z,6.20
2022-12-05T19:45:08.152Z,6.70
2022-12-05T19:47:42.656Z,7.00
2022-12-05T19:50:14.866Z,7.00
2022-12-05T19:52:47.042Z,6.50
2022-12-05T19:55:19.335Z,7.60
2022-12-05T19:57:51.990Z,5.80
2022-12-05T20:02:55.717Z,6.70
2022-12-05T20:05:29.670Z,6.90
2022-12-05T20:08:02.481Z,7.90
2022-12-05T20:10:37.912Z,7.20
2022-12-05T20:13:44.757Z,7.00
2022-12-05T20:18:38.163Z,7.40
2022-12-05T20:21:12.320Z,5.10
2022-12-05T20:23:44.589Z,6.10
2022-12-05T20:26:19.313Z,7.40
2022-12-05T20:28:51.795Z,7.20
2022-12-05T20:31:25.586Z,7.40
2022-12-05T20:33:58.223Z,6.40
2022-12-05T20:36:32.778Z,7.20
2022-12-05T20:39:06.914Z,6.30
2022-12-05T20:41:40.812Z,7.00
2022-12-05T20:44:14.908Z,8.10
2022-12-05T20:46:51.886Z,7.20
2022-12-05T20:49:24.999Z,7.40
2022-12-05T20:51:57.657Z,7.00
2022-12-05T20:57:03.178Z,8.00
2022-12-05T20:59:35.399Z,6.30
2022-12-05T21:02:08.840Z,7.60
2022-12-05T21:04:41.291Z,6.00
2022-12-05T21:07:13.494Z,6.60
2022-12-05T21:09:46.003Z,7.90
2022-12-05T21:12:18.143Z,7.70
2022-12-05T21:14:50.850Z,7.00
2022-12-05T21:17:23.184Z,6.90
2022-12-05T21:19:55.943Z,7.00
2022-12-05T21:22:28.158Z,7.30
2022-12-05T21:25:00.370Z,7.60
2022-12-05T21:27:32.554Z,7.50
2022-12-05T21:30:05.336Z,7.40
2022-12-05T21:35:09.103Z,6.90
2022-12-05T21:37:41.592Z,7.90
2022-12-05T21:40:14.693Z,6.50
2022-12-05T21:42:46.871Z,7.60
2022-12-05T21:45:19.195Z,7.10
2022-12-05T21:47:51.802Z,6.80
2022-12-05T21:52:54.568Z,7.30
2022-12-05T21:55:26.786Z,7.60
2022-12-05T21:57:59.749Z,7.10
2022-12-05T22:00:32.100Z,6.90
2022-12-05T22:03:04.749Z,7.20
2022-12-05T22:08:07.989Z,7.40
2022-12-05T22:10:40.563Z,7.80
2022-12-05T22:15:43.538Z,8.40
2022-12-05T22:18:17.227Z,8.30
2022-12-05T22:20:58.479Z,7.70
2022-12-05T22:23:33.785Z,9.50
2022-12-05T22:26:08.050Z,9.20
2022-12-05T22:28:42.771Z,9.00
2022-12-05T22:31:17.506Z,8.00
2022-12-05T22:33:50.058Z,8.90
2022-12-05T22:38:55.752Z,8.30
2022-12-05T22:41:30.415Z,8.60
2022-12-05T22:44:03.737Z,9.00
2022-12-05T22:46:37.119Z,8.10
2022-12-05T22:49:12.246Z,9.00
2022-12-05T22:51:45.106Z,8.60
2022-12-05T22:54:18.808Z,8.60
2022-12-05T22:56:52.326Z,8.20
2022-12-05T22:59:25.723Z,9.20
2022-12-05T23:01:59.428Z,8.40
2022-12-05T23:04:32.796Z,9.40
2022-12-05T23:07:06.103Z,9.20
2022-12-05T23:09:39.782Z,8.70
2022-12-05T23:12:12.945Z,8.40
2022-12-05T23:14:45.784Z,9.20
2022-12-05T23:24:28.212Z,10.00
2022-12-05T23:27:00.436Z,9.60
2022-12-05T23:29:32.631Z,9.60
2022-12-05T23:32:04.991Z,10.10
2022-12-05T23:34:37.275Z,8.70
2022-12-05T23:37:09.535Z,10.60
2022-12-05T23:39:41.701Z,8.50
2022-12-05T23:42:15.436Z,8.40
2022-12-05T23:44:47.880Z,9.00
2022-12-05T23:47:20.103Z,8.00
2022-12-05T23:49:52.434Z,9.70
2022-12-05T23:52:24.894Z,8.80
2022-12-05T23:54:57.160Z,9.00
2022-12-05T23:57:29.466Z,9.00
